createdAt,value
2023-03-25T00:01:17.073Z,18.00
2023-03-25T00:03:50.545Z,18.00
2023-03-25T00:06:18.157Z,18.00
2023-03-25T00:08:45.459Z,18.00
2023-03-25T00:11:12.310Z,18.10
2023-03-25T00:13:40.651Z,18.20
2023-03-25T00:16:10.300Z,18.20
2023-03-25T00:18:37.801Z,18.10
2023-03-25T00:21:10.740Z,18.10
2023-03-25T00:23:39.768Z,18.10
2023-03-25T00:26:07.344Z,18.10
2023-03-25T00:28:37.569Z,18.20
2023-03-25T00:31:07.747Z,18.20
2023-03-25T00:33:35.600Z,18.20
2023-03-25T00:36:04.702Z,18.20
2023-03-25T00:38:35.520Z,18.20
2023-03-25T00:41:17.727Z,18.10
2023-03-25T00:43:45.480Z,18.00
2023-03-25T00:46:12.502Z,18.00
2023-03-25T00:48:39.513Z,18.00
2023-03-25T00:51:10.285Z,18.00
2023-03-25T00:53:38.306Z,18.00
2023-03-25T00:56:05.957Z,17.90
2023-03-25T00:58:33.104Z,17.90
2023-03-25T01:00:59.870Z,17.90
2023-03-25T01:03:28.963Z,17.80
2023-03-25T01:05:56.208Z,17.90
2023-03-25T01:08:29.776Z,17.80
2023-03-25T01:10:57.286Z,17.80
2023-03-25T01:13:24.601Z,17.80
2023-03-25T01:15:52.080Z,17.80
2023-03-25T01:18:19.536Z,17.80
2023-03-25T01:20:46.419Z,17.80
2023-03-25T01:23:13.475Z,17.80
2023-03-25T01:25:40.447Z,17.70
2023-03-25T01:28:07.663Z,17.70
2023-03-25T01:30:34.528Z,17.70
2023-03-25T01:33:01.587Z,17.60
2023-03-25T01:35:28.577Z,17.40
2023-03-25T01:37:55.867Z,17.20
2023-03-25T01:40:24.160Z,17.00
2023-03-25T01:42:51.507Z,17.00
2023-03-25T01:45:25.127Z,16.90
2023-03-25T01:48:18.932Z,16.70
2023-03-25T01:50:53.203Z,16.60
2023-03-25T01:53:20.552Z,16.50
2023-03-25T01:55:47.977Z,16.50
2023-03-25T01:58:19.026Z,16.40
2023-03-25T02:00:47.782Z,16.50
2023-03-25T02:03:17.840Z,16.40
2023-03-25T02:05:51.078Z,16.30
2023-03-25T02:08:19.131Z,16.30
2023-03-25T02:10:47.814Z,16.30
2023-03-25T02:13:16.152Z,16.20
2023-03-25T02:16:17.562Z,16.20
2023-03-25T02:19:26.398Z,16.30
2023-03-25T02:22:29.524Z,16.40
2023-03-25T02:25:23.925Z,16.30
2023-03-25T02:27:56.774Z,16.20
2023-03-25T02:30:57.652Z,16.30
2023-03-25T02:33:33.416Z,16.20
2023-03-25T02:36:38.874Z,16.20
2023-03-25T02:39:11.692Z,16.20
2023-03-25T02:41:53.410Z,16.20
2023-03-25T02:44:44.773Z,16.30
2023-03-25T02:47:17.813Z,16.30
2023-03-25T02:49:50.515Z,16.20
2023-03-25T02:52:52.225Z,16.10
2023-03-25T02:55:21.691Z,16.00
2023-03-25T02:57:53.048Z,16.00
2023-03-25T03:00:24.650Z,16.10
2023-03-25T03:03:00.074Z,16.10
2023-03-25T03:05:50.757Z,16.00
2023-03-25T03:08:35.707Z,16.10
2023-03-25T03:11:17.452Z,16.00
2023-03-25T03:14:08.690Z,16.10
2023-03-25T03:17:03.650Z,16.00
2023-03-25T03:19:46.372Z,16.00
2023-03-25T03:22:44.500Z,16.00
2023-03-25T03:25:34.627Z,16.00
2023-03-25T03:28:25.376Z,16.10
2023-03-25T03:31:06.862Z,16.20
2023-03-25T03:33:48.092Z,16.10
2023-03-25T03:36:20.408Z,15.90
2023-03-25T03:38:51.821Z,15.90
2023-03-25T03:41:22.304Z,15.90
2023-03-25T03:43:54.664Z,15.80
2023-03-25T03:46:38.837Z,15.70
2023-03-25T03:49:15.986Z,15.70
2023-03-25T03:51:49.839Z,15.70
2023-03-25T03:54:24.979Z,15.70
2023-03-25T03:56:57.504Z,15.60
2023-03-25T03:59:37.336Z,15.60
2023-03-25T04:02:12.226Z,15.50
2023-03-25T04:04:39.195Z,15.50
2023-03-25T04:07:19.601Z,15.50
2023-03-25T04:10:14.703Z,15.60
2023-03-25T04:12:46.231Z,15.70
2023-03-25T04:15:14.305Z,15.70
2023-03-25T04:17:41.185Z,15.80
2023-03-25T04:20:11.510Z,15.80
2023-03-25T04:22:38.602Z,15.80
2023-03-25T04:25:07.373Z,15.80
2023-03-25T04:27:37.836Z,15.90
2023-03-25T04:30:06.638Z,15.90
2023-03-25T04:32:34.966Z,15.90
2023-03-25T04:35:03.423Z,15.80
2023-03-25T04:37:33.784Z,15.90
2023-03-25T04:40:01.309Z,15.90
2023-03-25T04:42:33.262Z,15.90
2023-03-25T04:45:00.671Z,15.90
2023-03-25T04:47:27.765Z,15.80
2023-03-25T04:49:54.656Z,15.70
2023-03-25T04:52:21.521Z,15.70
2023-03-25T04:54:48.468Z,15.60
2023-03-25T04:57:15.403Z,15.60
2023-03-25T04:59:42.338Z,15.60
2023-03-25T05:02:13.557Z,15.70
2023-03-25T05:04:43.051Z,15.60
2023-03-25T05:07:09.991Z,15.70
2023-03-25T05:09:36.907Z,15.60
2023-03-25T05:12:04.020Z,15.60
2023-03-25T05:14:30.925Z,15.50
2023-03-25T05:17:00.226Z,15.60
2023-03-25T05:19:28.813Z,15.70
2023-03-25T05:21:56.312Z,15.70
2023-03-25T05:24:23.570Z,15.70
2023-03-25T05:26:50.920Z,15.70
2023-03-25T05:29:17.774Z,15.60
2023-03-25T05:31:46.245Z,15.50
2023-03-25T05:34:14.764Z,15.50
2023-03-25T05:36:42.181Z,15.60
2023-03-25T05:39:10.944Z,15.60
2023-03-25T05:41:40.630Z,15.50
2023-03-25T05:44:09.616Z,15.60
2023-03-25T05:46:36.695Z,15.60
2023-03-25T05:49:04.044Z,15.60
2023-03-25T05:51:37.517Z,15.70
2023-03-25T05:54:11.534Z,15.60
2023-03-25T05:56:39.527Z,15.50
2023-03-25T05:59:08.127Z,15.50
2023-03-25T06:01:37.733Z,15.60
2023-03-25T06:04:04.873Z,15.50
2023-03-25T06:06:34.386Z,15.50
2023-03-25T06:09:02.572Z,15.50
2023-03-25T06:11:29.619Z,15.60
2023-03-25T06:13:56.931Z,15.60
2023-03-25T06:16:29.673Z,15.60
2023-03-25T06:18:59.961Z,15.70
2023-03-25T06:21:29.577Z,15.60
2023-03-25T06:23:58.731Z,15.50
2023-03-25T06:26:26.460Z,15.40
2023-03-25T06:28:54.687Z,15.40
2023-03-25T06:31:34.235Z,15.60
2023-03-25T06:34:01.581Z,15.70
2023-03-25T06:36:28.587Z,15.70
2023-03-25T06:38:55.796Z,15.90
2023-03-25T06:41:25.958Z,15.90
2023-03-25T06:43:53.358Z,16.00
2023-03-25T06:46:20.300Z,16.10
2023-03-25T06:48:47.230Z,16.20
2023-03-25T06:51:13.987Z,16.30
2023-03-25T06:53:41.425Z,16.20
2023-03-25T06:56:08.720Z,16.30
2023-03-25T06:58:35.749Z,16.30
2023-03-25T07:01:07.254Z,16.40
2023-03-25T07:03:39.119Z,16.40
2023-03-25T07:06:06.811Z,16.40
2023-03-25T07:08:34.432Z,16.40
2023-03-25T07:11:07.658Z,16.40
2023-03-25T07:13:35.362Z,16.50
2023-03-25T07:16:02.450Z,16.50
2023-03-25T07:21:04.816Z,16.50
2023-03-25T07:23:31.652Z,16.50
2023-03-25T07:25:58.543Z,16.40
2023-03-25T07:28:25.367Z,16.40
2023-03-25T07:30:52.269Z,16.30
2023-03-25T07:33:19.151Z,16.30
2023-03-25T07:35:46.070Z,16.40
2023-03-25T07:38:12.991Z,16.50
2023-03-25T07:40:40.647Z,16.50
2023-03-25T07:43:07.875Z,16.60
2023-03-25T07:45:43.756Z,16.80
2023-03-25T07:48:14.869Z,16.90
2023-03-25T07:50:42.913Z,17.00
2023-03-25T07:53:10.540Z,17.00
2023-03-25T07:55:37.623Z,16.90
2023-03-25T07:58:04.820Z,16.80
2023-03-25T08:00:31.843Z,16.80
2023-03-25T08:02:58.807Z,16.80
2023-03-25T08:05:26.162Z,16.80
2023-03-25T08:07:53.719Z,16.60
2023-03-25T08:10:21.608Z,16.60
2023-03-25T08:12:51.631Z,16.60
2023-03-25T08:15:18.688Z,16.60
2023-03-25T08:17:46.143Z,16.60
2023-03-25T08:20:13.299Z,16.70
2023-03-25T08:22:40.105Z,16.70
2023-03-25T08:25:07.933Z,16.60
2023-03-25T08:27:34.834Z,16.70
2023-03-25T08:30:02.381Z,16.70
2023-03-25T08:32:30.179Z,16.70
2023-03-25T08:34:57.594Z,16.80
2023-03-25T08:37:26.046Z,16.80
2023-03-25T08:39:56.032Z,16.90
2023-03-25T08:42:22.896Z,17.10
2023-03-25T08:44:50.262Z,17.20
2023-03-25T08:47:17.219Z,17.30
2023-03-25T08:49:44.017Z,17.40
2023-03-25T08:52:10.900Z,17.60
2023-03-25T08:54:37.699Z,17.70
2023-03-25T08:57:04.588Z,17.90
2023-03-25T08:59:31.577Z,18.20
2023-03-25T09:02:00.823Z,18.40
2023-03-25T09:04:28.337Z,18.50
2023-03-25T09:07:10.772Z,18.60
2023-03-25T09:09:40.038Z,18.90
2023-03-25T09:12:08.656Z,18.80
2023-03-25T09:14:35.528Z,18.80
2023-03-25T09:17:02.509Z,18.90
2023-03-25T09:19:29.437Z,18.70
2023-03-25T09:21:56.697Z,18.60
2023-03-25T09:24:24.903Z,18.60
2023-03-25T09:26:52.181Z,18.40
2023-03-25T09:29:19.469Z,18.40
2023-03-25T09:31:46.565Z,18.30
2023-03-25T09:34:14.621Z,18.30
2023-03-25T09:36:43.158Z,18.30
2023-03-25T09:39:09.989Z,18.10
2023-03-25T09:41:42.789Z,18.10
2023-03-25T09:44:30.953Z,18.10
2023-03-25T09:47:00.769Z,18.20
2023-03-25T09:49:39.648Z,18.30
2023-03-25T09:52:12.184Z,18.40
2023-03-25T09:54:48.742Z,18.60
2023-03-25T09:57:22.455Z,18.80
2023-03-25T09:59:51.706Z,19.00
2023-03-25T10:02:33.666Z,19.30
2023-03-25T10:05:25.425Z,19.40
2023-03-25T10:08:16.717Z,19.50
2023-03-25T10:11:07.062Z,19.60
2023-03-25T10:14:04.152Z,19.80
2023-03-25T10:16:31.406Z,19.80
2023-03-25T10:19:16.069Z,19.70
2023-03-25T10:22:06.664Z,19.80
2023-03-25T10:24:42.335Z,20.00
2023-03-25T10:27:32.399Z,20.30
2023-03-25T10:30:23.546Z,20.50
2023-03-25T10:32:58.674Z,20.70
2023-03-25T10:35:37.113Z,21.30
2023-03-25T10:38:18.833Z,21.70
2023-03-25T10:40:53.362Z,21.70
2023-03-25T10:43:34.695Z,22.10
2023-03-25T10:46:18.423Z,21.40
2023-03-25T10:48:47.214Z,21.30
2023-03-25T10:51:17.550Z,21.20
2023-03-25T10:53:50.019Z,21.20
2023-03-25T10:56:21.640Z,21.30
2023-03-25T10:58:56.077Z,21.30
2023-03-25T11:01:31.674Z,21.20
2023-03-25T11:04:00.791Z,21.20
2023-03-25T11:06:34.567Z,21.30
2023-03-25T11:09:15.449Z,21.40
2023-03-25T11:11:43.539Z,21.40
2023-03-25T11:14:15.099Z,21.20
2023-03-25T11:16:46.842Z,21.00
2023-03-25T11:19:40.034Z,20.80
2023-03-25T11:22:24.127Z,20.70
2023-03-25T11:24:57.805Z,20.60
2023-03-25T11:27:28.499Z,20.40
2023-03-25T11:30:16.797Z,20.30
2023-03-25T11:32:44.121Z,20.00
2023-03-25T11:35:38.462Z,19.80
2023-03-25T11:38:37.802Z,19.40
2023-03-25T11:41:06.975Z,19.10
2023-03-25T11:43:37.224Z,19.00
2023-03-25T11:46:09.772Z,18.70
2023-03-25T11:48:41.075Z,18.60
2023-03-25T11:51:21.260Z,18.40
2023-03-25T11:53:58.525Z,18.20
2023-03-25T11:56:32.873Z,18.10
2023-03-25T11:59:01.904Z,18.00
2023-03-25T12:01:38.584Z,17.80
2023-03-25T12:04:11.849Z,17.70
2023-03-25T12:06:54.055Z,17.60
2023-03-25T12:09:21.124Z,17.60
2023-03-25T12:12:03.496Z,17.50
2023-03-25T12:14:51.318Z,17.40
2023-03-25T12:17:27.084Z,17.50
2023-03-25T12:20:08.025Z,17.50
2023-03-25T12:22:57.292Z,17.50
2023-03-25T12:26:01.331Z,17.60
2023-03-25T12:28:30.317Z,17.80
2023-03-25T12:31:11.248Z,18.10
2023-03-25T12:33:53.136Z,18.60
2023-03-25T12:36:57.162Z,19.60
2023-03-25T12:39:55.001Z,21.30
2023-03-25T12:42:35.077Z,24.00
2023-03-25T12:45:24.458Z,26.00
2023-03-25T12:47:54.392Z,27.90
2023-03-25T12:50:35.306Z,30.80
2023-03-25T12:53:05.289Z,32.60
2023-03-25T12:55:44.878Z,34.30
2023-03-25T12:58:21.142Z,36.30
2023-03-25T13:01:10.019Z,37.70
2023-03-25T13:04:13.737Z,38.70
2023-03-25T13:07:04.378Z,39.50
2023-03-25T13:09:35.139Z,38.70
2023-03-25T13:12:22.592Z,36.30
2023-03-25T13:15:21.801Z,34.60
2023-03-25T13:18:07.453Z,35.20
2023-03-25T13:20:40.050Z,36.50
2023-03-25T13:23:12.199Z,35.70
2023-03-25T13:25:45.929Z,36.00
2023-03-25T13:28:26.180Z,35.50
2023-03-25T13:30:54.312Z,35.80
2023-03-25T13:33:28.727Z,36.10
2023-03-25T13:36:07.654Z,37.10
2023-03-25T13:38:51.464Z,38.10
2023-03-25T13:41:39.847Z,38.80
2023-03-25T13:44:14.988Z,38.60
2023-03-25T13:46:46.903Z,37.90
2023-03-25T13:49:16.932Z,36.90
2023-03-25T13:51:44.124Z,36.00
2023-03-25T13:54:28.713Z,34.60
2023-03-25T13:56:58.595Z,33.20
2023-03-25T13:59:52.153Z,31.20
2023-03-25T14:02:41.138Z,29.10
2023-03-25T14:05:49.239Z,26.80
2023-03-25T14:08:28.528Z,24.70
2023-03-25T14:11:16.741Z,23.00
2023-03-25T14:13:56.744Z,21.70
2023-03-25T14:16:28.128Z,20.20
2023-03-25T14:19:01.738Z,19.30
2023-03-25T14:21:41.098Z,18.50
2023-03-25T14:24:32.562Z,17.80
2023-03-25T14:27:07.560Z,17.20
2023-03-25T14:29:34.327Z,16.80
2023-03-25T14:32:26.209Z,16.40
2023-03-25T14:34:54.340Z,15.30
2023-03-25T14:37:27.235Z,14.40
2023-03-25T14:40:08.227Z,14.10
2023-03-25T14:43:01.343Z,13.70
2023-03-25T14:45:32.184Z,13.60
2023-03-25T14:47:59.701Z,13.50
2023-03-25T14:50:29.580Z,13.50
2023-03-25T14:53:06.536Z,13.40
2023-03-25T14:55:42.258Z,13.40
2023-03-25T14:58:25.556Z,13.20
2023-03-25T15:01:04.502Z,12.90
2023-03-25T15:03:37.880Z,12.80
2023-03-25T15:06:09.233Z,12.80
2023-03-25T15:08:39.315Z,12.70
2023-03-25T15:11:16.947Z,12.50
2023-03-25T15:13:55.355Z,12.40
2023-03-25T15:16:56.376Z,12.40
2023-03-25T15:19:23.807Z,12.60
2023-03-25T15:22:10.963Z,12.70
2023-03-25T15:24:40.094Z,12.80
2023-03-25T15:27:31.336Z,12.90
2023-03-25T15:30:39.572Z,12.90
2023-03-25T15:33:36.958Z,12.80
2023-03-25T15:36:22.972Z,12.60
2023-03-25T15:38:54.732Z,12.40
2023-03-25T15:41:49.664Z,12.30
2023-03-25T15:44:28.634Z,12.20
2023-03-25T15:47:21.664Z,12.20
2023-03-25T15:50:05.668Z,12.80
2023-03-25T15:52:59.416Z,13.60
2023-03-25T15:55:38.251Z,14.20
2023-03-25T15:58:23.333Z,14.50
2023-03-25T16:00:55.946Z,15.60
2023-03-25T16:03:27.279Z,17.00
2023-03-25T16:06:01.686Z,18.50
2023-03-25T16:08:37.070Z,20.00
2023-03-25T16:11:24.595Z,20.90
2023-03-25T16:14:23.747Z,21.10
2023-03-25T16:16:56.767Z,19.80
2023-03-25T16:19:34.060Z,18.10
2023-03-25T16:22:03.463Z,18.30
2023-03-25T16:24:34.230Z,18.40
2023-03-25T16:27:12.313Z,17.90
2023-03-25T16:29:40.012Z,16.80
2023-03-25T16:32:07.029Z,15.80
2023-03-25T16:34:40.602Z,15.00
2023-03-25T16:37:07.988Z,14.10
2023-03-25T16:39:37.116Z,13.60
2023-03-25T16:42:19.439Z,13.20
2023-03-25T16:44:47.219Z,12.90
2023-03-25T16:47:15.907Z,12.70
2023-03-25T16:49:47.290Z,12.40
2023-03-25T16:52:19.783Z,12.10
2023-03-25T16:55:25.549Z,11.90
2023-03-25T16:57:52.854Z,11.70
2023-03-25T17:00:23.051Z,11.60
2023-03-25T17:02:50.984Z,11.50
2023-03-25T17:05:24.260Z,11.50
2023-03-25T17:07:58.199Z,11.50
2023-03-25T17:10:28.132Z,11.40
2023-03-25T17:13:06.940Z,11.30
2023-03-25T17:15:34.648Z,11.20
2023-03-25T17:18:06.095Z,11.10
2023-03-25T17:20:41.570Z,11.10
2023-03-25T17:23:19.688Z,11.10
2023-03-25T17:26:01.689Z,11.10
2023-03-25T17:28:32.911Z,11.00
2023-03-25T17:31:00.785Z,10.90
2023-03-25T17:33:36.074Z,10.90
2023-03-25T17:36:08.145Z,10.90
2023-03-25T17:38:50.424Z,10.80
2023-03-25T17:41:18.646Z,10.80
2023-03-25T17:43:48.381Z,10.70
2023-03-25T17:46:29.335Z,10.60
2023-03-25T17:48:57.885Z,10.60
2023-03-25T17:51:27.121Z,10.50
2023-03-25T17:53:55.078Z,10.50
2023-03-25T17:56:28.237Z,10.50
2023-03-25T17:59:01.585Z,10.40
2023-03-25T18:01:30.748Z,10.40
2023-03-25T18:03:58.048Z,10.30
2023-03-25T18:06:25.203Z,10.30
2023-03-25T18:08:53.059Z,10.30
2023-03-25T18:11:20.197Z,10.30
2023-03-25T18:13:48.160Z,10.40
2023-03-25T18:16:47.020Z,10.40
2023-03-25T18:19:17.052Z,10.40
2023-03-25T18:21:44.513Z,10.50
2023-03-25T18:24:11.988Z,10.60
2023-03-25T18:26:39.269Z,10.70
2023-03-25T18:29:21.259Z,10.70
2023-03-25T18:31:48.657Z,10.80
2023-03-25T18:34:16.029Z,10.80
2023-03-25T18:36:44.724Z,10.80
2023-03-25T18:44:32.151Z,10.90
2023-03-25T18:46:59.052Z,10.90
2023-03-25T18:49:27.562Z,10.80
2023-03-25T18:51:55.641Z,10.70
2023-03-25T18:54:22.977Z,10.70
2023-03-25T18:56:49.967Z,10.80
2023-03-25T19:01:45.828Z,10.70
2023-03-25T19:04:13.845Z,10.80
2023-03-25T19:13:08.707Z,10.50
2023-03-25T19:15:35.625Z,10.50
2023-03-25T19:18:06.489Z,10.50
2023-03-25T19:20:36.086Z,10.60
2023-03-25T19:23:04.641Z,10.50
2023-03-25T19:25:31.894Z,10.50
2023-03-25T19:27:59.170Z,10.50
2023-03-25T19:30:26.058Z,10.40
2023-03-25T19:33:00.256Z,10.40
2023-03-25T19:35:27.616Z,10.40
2023-03-25T19:37:56.446Z,10.30
2023-03-25T19:40:26.392Z,10.30
2023-03-25T19:42:59.226Z,10.40
2023-03-25T19:47:59.520Z,10.20
2023-03-25T19:53:15.787Z,10.10
2023-03-25T19:55:44.060Z,10.10
2023-03-25T19:58:12.118Z,10.00
2023-03-25T20:00:40.037Z,10.00
2023-03-25T20:12:52.761Z,9.90
2023-03-25T20:21:09.096Z,9.70
2023-03-25T20:23:36.259Z,9.80
2023-03-25T20:26:03.277Z,9.80
2023-03-25T20:32:07.359Z,9.80
2023-03-25T20:34:44.655Z,10.00
2023-03-25T20:37:11.514Z,10.00
2023-03-25T20:42:13.874Z,9.90
2023-03-25T20:44:40.865Z,10.00
2023-03-25T20:47:09.138Z,9.80
2023-03-25T20:52:21.649Z,9.90
2023-03-25T20:57:48.689Z,9.70
2023-03-25T21:00:19.756Z,9.70
2023-03-25T21:02:47.898Z,9.60
2023-03-25T21:12:17.195Z,9.50
2023-03-25T21:21:28.436Z,9.40
2023-03-25T21:26:43.716Z,9.50
2023-03-25T21:29:10.595Z,9.50
2023-03-25T21:31:37.553Z,9.50
2023-03-25T21:36:49.705Z,9.40
2023-03-25T21:39:17.000Z,9.40
2023-03-25T21:41:43.749Z,9.30
2023-03-25T21:46:47.828Z,9.50
2023-03-25T21:49:15.568Z,9.30
2023-03-25T21:51:44.250Z,9.10
2023-03-25T21:54:11.641Z,9.00
2023-03-25T21:56:40.152Z,9.00
2023-03-25T21:59:07.122Z,9.00
2023-03-25T22:04:09.837Z,9.10
2023-03-25T22:11:58.449Z,8.90
2023-03-25T22:17:00.809Z,8.80
2023-03-25T22:19:27.698Z,8.80
2023-03-25T22:27:12.805Z,8.90
2023-03-25T22:29:39.708Z,9.00
2023-03-25T22:32:07.233Z,9.10
2023-03-25T22:34:35.042Z,9.10
2023-03-25T22:37:02.210Z,9.00
2023-03-25T22:39:29.397Z,9.00
2023-03-25T22:41:57.881Z,9.00
2023-03-25T22:44:25.291Z,9.00
2023-03-25T22:46:52.829Z,9.00
2023-03-25T22:49:20.708Z,8.70
2023-03-25T22:51:48.594Z,8.70
2023-03-25T22:54:15.689Z,8.60
2023-03-25T22:56:43.705Z,8.50
2023-03-25T22:59:12.860Z,8.60
2023-03-25T23:01:41.454Z,8.60
2023-03-25T23:04:09.154Z,8.60
2023-03-25T23:06:37.378Z,8.60
2023-03-25T23:09:08.124Z,8.70
2023-03-25T23:11:37.177Z,8.60
2023-03-25T23:14:07.910Z,8.60
2023-03-25T23:16:35.688Z,8.50
2023-03-25T23:19:05.700Z,8.50
2023-03-25T23:21:33.533Z,8.60
2023-03-25T23:24:03.086Z,8.60
2023-03-25T23:26:37.408Z,8.40
2023-03-25T23:29:06.402Z,8.30
2023-03-25T23:31:34.747Z,8.20
2023-03-25T23:34:04.601Z,8.10
2023-03-25T23:36:34.420Z,8.10
2023-03-25T23:39:02.320Z,8.00
2023-03-25T23:41:29.793Z,8.00
2023-03-25T23:43:57.330Z,8.10
2023-03-25T23:46:25.685Z,8.30
2023-03-25T23:49:01.888Z,8.30
2023-03-25T23:51:36.573Z,8.20
2023-03-25T23:54:05.796Z,8.10
2023-03-25T23:56:32.820Z,8.00
2023-03-25T23:59:00.421Z,8.00
